SLJE/SJS METAR and TAF weather

Enter ICAO airport designator
Station Type Date Time Source
SLJE METAR 2020/01/27 22:00 UTC NOAA

SLJE 272200Z 18012KT 9999 FEW020 BKN070 OVC200 28/20 Q1010


Station Type Date Time Source
SLJE Decoded METAR 2020/01/27 22:00 UTC NOAA

San Jose De Chiquitos, Bolivia (SLJE) 17-48S 060-44W
Jan 27, 2020 - 05:00 PM EST / 2020.01.27 2200 UTC
Wind: from the S (180 degrees) at 14 MPH (12 KT):0
Visibility: greater than 7 mile(s):0
Sky conditions: overcast
Temperature: 82 F (28 C)
Dew Point: 68 F (20 C)
Relative Humidity: 61%
Pressure (altimeter): 29.83 in. Hg (1010 hPa)
ob: SLJE 272200Z 18012KT 9999 FEW020 BKN070 OVC200 28/20 Q1010
cycle: 22

Station Type Date Time Source
SLJE TAF 2009/01/07 11:00 UTC NOAA

METAR SLJE 071100Z 00000KT 9999 SKC 21/18 Q1014

Example: see airport list